sensor_id;sensor_type;location;lat;lon;timestamp;pressure;altitude;pressure_sealevel;temperature;humidity
43818;BME280;29868;47.360;18.984;2023-02-13T00:00:33;102491.03;;;-1.88;100.00
43818;BME280;29868;47.360;18.984;2023-02-13T00:02:59;102496.97;;;-2.05;100.00
43818;BME280;29868;47.360;18.984;2023-02-13T00:05:24;102499.38;;;-2.15;100.00
43818;BME280;29868;47.360;18.984;2023-02-13T00:07:50;102491.44;;;-2.01;100.00
43818;BME280;29868;47.360;18.984;2023-02-13T00:10:15;102491.56;;;-2.17;100.00
43818;BME280;29868;47.360;18.984;2023-02-13T00:12:41;102495.44;;;-2.21;100.00
43818;BME280;29868;47.360;18.984;2023-02-13T00:15:07;102493.84;;;-2.11;100.00
43818;BME280;29868;47.360;18.984;2023-02-13T00:17:33;102492.81;;;-1.96;100.00
43818;BME280;29868;47.360;18.984;2023-02-13T00:19:58;102500.34;;;-1.72;100.00
43818;BME280;29868;47.360;18.984;2023-02-13T00:22:24;102501.84;;;-1.65;100.00
43818;BME280;29868;47.360;18.984;2023-02-13T00:24:49;102503.38;;;-1.58;100.00
43818;BME280;29868;47.360;18.984;2023-02-13T00:27:15;102514.16;;;-1.52;100.00
43818;BME280;29868;47.360;18.984;2023-02-13T00:29:40;102503.66;;;-1.47;100.00
43818;BME280;29868;47.360;18.984;2023-02-13T00:32:06;102515.66;;;-1.37;100.00
43818;BME280;29868;47.360;18.984;2023-02-13T00:34:32;102511.47;;;-1.36;100.00
43818;BME280;29868;47.360;18.984;2023-02-13T00:36:57;102514.75;;;-1.46;100.00
43818;BME280;29868;47.360;18.984;2023-02-13T00:39:23;102504.25;;;-1.49;100.00
43818;BME280;29868;47.360;18.984;2023-02-13T00:41:48;102499.00;;;-1.42;100.00
43818;BME280;29868;47.360;18.984;2023-02-13T00:44:13;102498.88;;;-1.35;100.00
43818;BME280;29868;47.360;18.984;2023-02-13T00:46:39;102499.00;;;-1.59;100.00
43818;BME280;29868;47.360;18.984;2023-02-13T00:49:05;102496.47;;;-1.51;100.00
43818;BME280;29868;47.360;18.984;2023-02-13T00:51:30;102498.56;;;-1.38;100.00
43818;BME280;29868;47.360;18.984;2023-02-13T00:53:56;102499.47;;;-1.29;100.00
43818;BME280;29868;47.360;18.984;2023-02-13T00:56:21;102504.56;;;-1.29;100.00
43818;BME280;29868;47.360;18.984;2023-02-13T00:58:47;102504.09;;;-1.33;100.00
43818;BME280;29868;47.360;18.984;2023-02-13T01:01:12;102507.72;;;-1.31;100.00
43818;BME280;29868;47.360;18.984;2023-02-13T01:03:37;102510.28;;;-1.40;100.00
43818;BME280;29868;47.360;18.984;2023-02-13T01:06:03;102507.41;;;-1.26;100.00
43818;BME280;29868;47.360;18.984;2023-02-13T01:08:29;102499.16;;;-1.32;100.00
43818;BME280;29868;47.360;18.984;2023-02-13T01:10:55;102491.53;;;-1.32;100.00
43818;BME280;29868;47.360;18.984;2023-02-13T01:13:20;102487.47;;;-1.30;100.00
43818;BME280;29868;47.360;18.984;2023-02-13T01:15:46;102485.06;;;-1.37;100.00
43818;BME280;29868;47.360;18.984;2023-02-13T01:18:16;102482.06;;;-1.67;100.00
43818;BME280;29868;47.360;18.984;2023-02-13T01:20:43;102481.03;;;-1.69;100.00
43818;BME280;29868;47.360;18.984;2023-02-13T01:23:09;102473.03;;;-1.90;100.00
43818;BME280;29868;47.360;18.984;2023-02-13T01:25:39;102476.59;;;-2.14;100.00
43818;BME280;29868;47.360;18.984;2023-02-13T01:28:04;102480.63;;;-2.25;100.00
43818;BME280;29868;47.360;18.984;2023-02-13T01:30:29;102480.84;;;-2.39;100.00
43818;BME280;29868;47.360;18.984;2023-02-13T01:32:55;102473.94;;;-2.57;100.00
43818;BME280;29868;47.360;18.984;2023-02-13T01:35:20;102466.84;;;-2.68;100.00
43818;BME280;29868;47.360;18.984;2023-02-13T01:37:46;102467.28;;;-2.73;100.00
43818;BME280;29868;47.360;18.984;2023-02-13T01:40:13;102458.72;;;-2.73;100.00
43818;BME280;29868;47.360;18.984;2023-02-13T01:42:39;102471.59;;;-2.80;100.00
43818;BME280;29868;47.360;18.984;2023-02-13T01:47:49;102462.53;;;-2.94;100.00
43818;BME280;29868;47.360;18.984;2023-02-13T01:50:41;102462.09;;;-2.90;100.00
43818;BME280;29868;47.360;18.984;2023-02-13T01:53:09;102467.72;;;-3.01;100.00
43818;BME280;29868;47.360;18.984;2023-02-13T01:55:42;102455.09;;;-3.08;100.00
43818;BME280;29868;47.360;18.984;2023-02-13T01:58:13;102459.28;;;-3.09;100.00
43818;BME280;29868;47.360;18.984;2023-02-13T02:00:41;102459.81;;;-3.20;100.00
43818;BME280;29868;47.360;18.984;2023-02-13T02:03:26;102457.59;;;-3.17;100.00
43818;BME280;29868;47.360;18.984;2023-02-13T02:05:56;102463.13;;;-3.21;100.00
43818;BME280;29868;47.360;18.984;2023-02-13T02:08:22;102457.56;;;-3.26;100.00
43818;BME280;29868;47.360;18.984;2023-02-13T02:10:48;102464.44;;;-3.25;100.00
43818;BME280;29868;47.360;18.984;2023-02-13T02:13:17;102470.38;;;-3.33;100.00
43818;BME280;29868;47.360;18.984;2023-02-13T02:15:44;102472.72;;;-3.34;100.00
43818;BME280;29868;47.360;18.984;2023-02-13T02:18:15;102464.53;;;-3.32;100.00
43818;BME280;29868;47.360;18.984;2023-02-13T02:28:58;102465.13;;;-3.50;100.00
43818;BME280;29868;47.360;18.984;2023-02-13T02:45:25;102469.66;;;-3.79;100.00
43818;BME280;29868;47.360;18.984;2023-02-13T02:50:50;102467.31;;;-3.78;100.00
43818;BME280;29868;47.360;18.984;2023-02-13T02:56:34;102465.81;;;-3.76;100.00
43818;BME280;29868;47.360;18.984;2023-02-13T02:59:10;102470.75;;;-3.77;100.00
43818;BME280;29868;47.360;18.984;2023-02-13T03:01:56;102472.72;;;-3.75;100.00
43818;BME280;29868;47.360;18.984;2023-02-13T03:04:45;102465.50;;;-3.79;100.00
43818;BME280;29868;47.360;18.984;2023-02-13T03:07:29;102469.84;;;-3.78;100.00
43818;BME280;29868;47.360;18.984;2023-02-13T03:09:57;102468.84;;;-3.87;100.00
43818;BME280;29868;47.360;18.984;2023-02-13T03:12:56;102466.31;;;-3.87;100.00
43818;BME280;29868;47.360;18.984;2023-02-13T03:15:44;102460.59;;;-3.93;100.00
43818;BME280;29868;47.360;18.984;2023-02-13T03:18:30;102460.59;;;-3.93;100.00
43818;BME280;29868;47.360;18.984;2023-02-13T03:21:17;102456.91;;;-4.04;100.00
43818;BME280;29868;47.360;18.984;2023-02-13T03:24:06;102458.34;;;-4.06;100.00
43818;BME280;29868;47.360;18.984;2023-02-13T03:27:16;102464.75;;;-4.09;100.00
43818;BME280;29868;47.360;18.984;2023-02-13T03:30:18;102458.88;;;-4.01;100.00
43818;BME280;29868;47.360;18.984;2023-02-13T03:38:26;102460.41;;;-4.10;100.00
43818;BME280;29868;47.360;18.984;2023-02-13T03:41:02;102463.69;;;-4.11;100.00
43818;BME280;29868;47.360;18.984;2023-02-13T03:46:46;102455.09;;;-4.05;100.00
43818;BME280;29868;47.360;18.984;2023-02-13T03:49:35;102451.66;;;-3.89;100.00
43818;BME280;29868;47.360;18.984;2023-02-13T03:52:35;102456.34;;;-4.01;100.00
43818;BME280;29868;47.360;18.984;2023-02-13T03:55:15;102450.19;;;-4.03;100.00
43818;BME280;29868;47.360;18.984;2023-02-13T03:58:31;102447.41;;;-3.98;100.00
43818;BME280;29868;47.360;18.984;2023-02-13T04:01:19;102446.81;;;-3.95;100.00
43818;BME280;29868;47.360;18.984;2023-02-13T04:03:51;102451.00;;;-3.96;100.00
43818;BME280;29868;47.360;18.984;2023-02-13T04:06:33;102447.97;;;-4.00;100.00
43818;BME280;29868;47.360;18.984;2023-02-13T04:09:00;102455.53;;;-3.93;100.00
43818;BME280;29868;47.360;18.984;2023-02-13T04:11:35;102449.69;;;-3.92;100.00
43818;BME280;29868;47.360;18.984;2023-02-13T04:15:01;102455.19;;;-3.96;100.00
43818;BME280;29868;47.360;18.984;2023-02-13T04:17:41;102461.00;;;-3.97;100.00
43818;BME280;29868;47.360;18.984;2023-02-13T04:20:08;102460.75;;;-3.92;100.00
43818;BME280;29868;47.360;18.984;2023-02-13T04:22:35;102464.94;;;-3.92;100.00
43818;BME280;29868;47.360;18.984;2023-02-13T04:25:06;102454.78;;;-4.08;100.00
43818;BME280;29868;47.360;18.984;2023-02-13T04:27:31;102457.13;;;-4.09;100.00
43818;BME280;29868;47.360;18.984;2023-02-13T04:29:56;102452.88;;;-4.18;100.00
43818;BME280;29868;47.360;18.984;2023-02-13T04:32:22;102457.94;;;-4.18;100.00
43818;BME280;29868;47.360;18.984;2023-02-13T04:34:47;102451.50;;;-4.07;100.00
43818;BME280;29868;47.360;18.984;2023-02-13T04:37:13;102449.03;;;-4.14;100.00
43818;BME280;29868;47.360;18.984;2023-02-13T04:39:38;102456.56;;;-4.23;100.00
43818;BME280;29868;47.360;18.984;2023-02-13T04:42:03;102448.59;;;-4.26;100.00
43818;BME280;29868;47.360;18.984;2023-02-13T04:44:29;102453.63;;;-4.19;100.00
43818;BME280;29868;47.360;18.984;2023-02-13T04:46:55;102447.97;;;-4.16;100.00
43818;BME280;29868;47.360;18.984;2023-02-13T04:49:21;102444.34;;;-4.18;100.00
43818;BME280;29868;47.360;18.984;2023-02-13T04:51:46;102449.84;;;-4.22;100.00
43818;BME280;29868;47.360;18.984;2023-02-13T04:54:12;102441.91;;;-4.25;100.00
43818;BME280;29868;47.360;18.984;2023-02-13T04:56:37;102446.00;;;-4.19;100.00
43818;BME280;29868;47.360;18.984;2023-02-13T04:59:02;102449.69;;;-4.24;100.00
43818;BME280;29868;47.360;18.984;2023-02-13T05:01:28;102450.09;;;-4.28;100.00
43818;BME280;29868;47.360;18.984;2023-02-13T05:03:53;102453.25;;;-4.37;100.00
43818;BME280;29868;47.360;18.984;2023-02-13T05:06:19;102449.00;;;-4.46;100.00
43818;BME280;29868;47.360;18.984;2023-02-13T05:08:44;102441.88;;;-4.41;100.00
43818;BME280;29868;47.360;18.984;2023-02-13T05:11:10;102455.72;;;-4.46;100.00
43818;BME280;29868;47.360;18.984;2023-02-13T05:13:35;102446.63;;;-4.44;100.00
43818;BME280;29868;47.360;18.984;2023-02-13T05:16:00;102437.63;;;-4.49;100.00
43818;BME280;29868;47.360;18.984;2023-02-13T05:18:26;102443.50;;;-4.57;100.00
43818;BME280;29868;47.360;18.984;2023-02-13T05:20:51;102444.59;;;-4.62;100.00
43818;BME280;29868;47.360;18.984;2023-02-13T05:23:35;102432.50;;;-4.65;100.00
43818;BME280;29868;47.360;18.984;2023-02-13T05:26:01;102427.84;;;-4.69;100.00
43818;BME280;29868;47.360;18.984;2023-02-13T05:28:26;102431.44;;;-4.67;100.00
43818;BME280;29868;47.360;18.984;2023-02-13T05:31:10;102433.00;;;-4.60;100.00
43818;BME280;29868;47.360;18.984;2023-02-13T05:33:36;102441.34;;;-4.61;100.00
43818;BME280;29868;47.360;18.984;2023-02-13T05:36:02;102434.06;;;-4.58;100.00
43818;BME280;29868;47.360;18.984;2023-02-13T05:38:27;102431.53;;;-4.58;100.00
43818;BME280;29868;47.360;18.984;2023-02-13T05:40:53;102429.72;;;-4.59;100.00
43818;BME280;29868;47.360;18.984;2023-02-13T05:43:19;102429.38;;;-4.62;100.00
43818;BME280;29868;47.360;18.984;2023-02-13T05:45:44;102435.25;;;-4.71;100.00
43818;BME280;29868;47.360;18.984;2023-02-13T05:48:10;102433.13;;;-4.75;100.00
43818;BME280;29868;47.360;18.984;2023-02-13T05:50:35;102432.72;;;-4.71;100.00
43818;BME280;29868;47.360;18.984;2023-02-13T05:53:01;102427.59;;;-4.63;100.00
43818;BME280;29868;47.360;18.984;2023-02-13T05:55:26;102440.47;;;-4.62;100.00
43818;BME280;29868;47.360;18.984;2023-02-13T05:57:55;102436.44;;;-4.60;100.00
43818;BME280;29868;47.360;18.984;2023-02-13T06:00:21;102446.44;;;-4.61;100.00
43818;BME280;29868;47.360;18.984;2023-02-13T06:02:47;102443.09;;;-4.53;100.00
43818;BME280;29868;47.360;18.984;2023-02-13T06:05:12;102440.63;;;-4.45;100.00
43818;BME280;29868;47.360;18.984;2023-02-13T06:07:38;102441.88;;;-4.41;100.00
43818;BME280;29868;47.360;18.984;2023-02-13T06:10:04;102442.28;;;-4.45;100.00
43818;BME280;29868;47.360;18.984;2023-02-13T06:12:29;102441.53;;;-4.44;100.00
43818;BME280;29868;47.360;18.984;2023-02-13T06:14:55;102446.72;;;-4.35;100.00
43818;BME280;29868;47.360;18.984;2023-02-13T06:17:20;102449.91;;;-4.29;100.00
43818;BME280;29868;47.360;18.984;2023-02-13T06:19:45;102450.66;;;-4.30;100.00
43818;BME280;29868;47.360;18.984;2023-02-13T06:22:11;102455.91;;;-4.13;100.00
43818;BME280;29868;47.360;18.984;2023-02-13T06:24:36;102457.56;;;-3.98;100.00
43818;BME280;29868;47.360;18.984;2023-02-13T06:27:02;102458.38;;;-3.90;100.00
43818;BME280;29868;47.360;18.984;2023-02-13T06:29:27;102465.34;;;-3.80;100.00
43818;BME280;29868;47.360;18.984;2023-02-13T06:31:52;102473.34;;;-3.69;100.00
43818;BME280;29868;47.360;18.984;2023-02-13T06:34:18;102476.13;;;-3.58;100.00
43818;BME280;29868;47.360;18.984;2023-02-13T06:36:43;102473.84;;;-3.48;100.00
43818;BME280;29868;47.360;18.984;2023-02-13T06:39:09;102477.56;;;-3.29;100.00
43818;BME280;29868;47.360;18.984;2023-02-13T06:41:35;102478.56;;;-3.11;100.00
43818;BME280;29868;47.360;18.984;2023-02-13T06:44:00;102475.66;;;-2.98;100.00
43818;BME280;29868;47.360;18.984;2023-02-13T06:46:26;102475.06;;;-2.96;100.00
43818;BME280;29868;47.360;18.984;2023-02-13T06:48:51;102480.47;;;-2.92;100.00
43818;BME280;29868;47.360;18.984;2023-02-13T06:51:17;102479.78;;;-2.83;100.00
43818;BME280;29868;47.360;18.984;2023-02-13T06:53:42;102484.47;;;-2.70;100.00
43818;BME280;29868;47.360;18.984;2023-02-13T06:56:08;102482.41;;;-2.65;100.00
43818;BME280;29868;47.360;18.984;2023-02-13T06:58:35;102482.91;;;-2.61;100.00
43818;BME280;29868;47.360;18.984;2023-02-13T07:01:00;102491.19;;;-2.46;100.00
43818;BME280;29868;47.360;18.984;2023-02-13T07:03:26;102488.50;;;-2.39;100.00
43818;BME280;29868;47.360;18.984;2023-02-13T07:05:51;102485.72;;;-2.25;100.00
43818;BME280;29868;47.360;18.984;2023-02-13T07:08:17;102477.06;;;-2.09;100.00
43818;BME280;29868;47.360;18.984;2023-02-13T07:10:43;102483.22;;;-1.99;100.00
43818;BME280;29868;47.360;18.984;2023-02-13T07:13:09;102493.31;;;-1.74;100.00
43818;BME280;29868;47.360;18.984;2023-02-13T07:15:36;102491.06;;;-1.62;100.00
43818;BME280;29868;47.360;18.984;2023-02-13T07:18:02;102493.16;;;-1.50;100.00
43818;BME280;29868;47.360;18.984;2023-02-13T07:20:28;102489.56;;;-1.43;100.00
43818;BME280;29868;47.360;18.984;2023-02-13T07:22:58;102485.06;;;-1.28;100.00
43818;BME280;29868;47.360;18.984;2023-02-13T07:25:24;102479.34;;;-1.08;100.00
43818;BME280;29868;47.360;18.984;2023-02-13T07:27:49;102492.66;;;-0.93;100.00
43818;BME280;29868;47.360;18.984;2023-02-13T07:30:15;102494.13;;;-0.78;100.00
43818;BME280;29868;47.360;18.984;2023-02-13T07:32:40;102492.75;;;-0.75;100.00
43818;BME280;29868;47.360;18.984;2023-02-13T07:35:06;102488.81;;;-0.62;100.00
43818;BME280;29868;47.360;18.984;2023-02-13T07:37:31;102482.41;;;-0.40;100.00
43818;BME280;29868;47.360;18.984;2023-02-13T07:39:57;102492.41;;;-0.24;100.00
43818;BME280;29868;47.360;18.984;2023-02-13T07:42:23;102499.63;;;-0.01;100.00
43818;BME280;29868;47.360;18.984;2023-02-13T07:44:48;102501.69;;;0.12;100.00
43818;BME280;29868;47.360;18.984;2023-02-13T07:47:14;102502.19;;;0.27;100.00
43818;BME280;29868;47.360;18.984;2023-02-13T07:49:39;102506.06;;;0.32;100.00
43818;BME280;29868;47.360;18.984;2023-02-13T07:52:05;102502.66;;;0.41;100.00
43818;BME280;29868;47.360;18.984;2023-02-13T07:54:31;102510.41;;;0.52;100.00
43818;BME280;29868;47.360;18.984;2023-02-13T07:56:57;102497.81;;;0.63;100.00
43818;BME280;29868;47.360;18.984;2023-02-13T07:59:23;102499.69;;;0.75;100.00
43818;BME280;29868;47.360;18.984;2023-02-13T08:01:48;102507.00;;;0.99;100.00
43818;BME280;29868;47.360;18.984;2023-02-13T08:04:14;102506.00;;;1.07;100.00
43818;BME280;29868;47.360;18.984;2023-02-13T08:06:40;102516.25;;;1.17;100.00
43818;BME280;29868;47.360;18.984;2023-02-13T08:09:06;102516.03;;;1.25;100.00
43818;BME280;29868;47.360;18.984;2023-02-13T08:11:52;102514.78;;;1.30;100.00
43818;BME280;29868;47.360;18.984;2023-02-13T08:14:19;102516.91;;;1.44;100.00
43818;BME280;29868;47.360;18.984;2023-02-13T08:16:45;102506.13;;;1.38;100.00
43818;BME280;29868;47.360;18.984;2023-02-13T08:19:11;102511.81;;;1.64;100.00
43818;BME280;29868;47.360;18.984;2023-02-13T08:21:36;102505.56;;;1.71;100.00
43818;BME280;29868;47.360;18.984;2023-02-13T08:24:03;102514.69;;;1.88;100.00
43818;BME280;29868;47.360;18.984;2023-02-13T08:26:32;102512.13;;;1.98;100.00
43818;BME280;29868;47.360;18.984;2023-02-13T08:28:58;102507.00;;;2.08;100.00
43818;BME280;29868;47.360;18.984;2023-02-13T08:31:24;102515.47;;;2.17;100.00
43818;BME280;29868;47.360;18.984;2023-02-13T08:33:50;102504.44;;;2.29;100.00
43818;BME280;29868;47.360;18.984;2023-02-13T08:36:15;102502.41;;;2.25;100.00
43818;BME280;29868;47.360;18.984;2023-02-13T08:38:41;102504.03;;;2.34;100.00
43818;BME280;29868;47.360;18.984;2023-02-13T08:41:07;102499.81;;;2.55;100.00
43818;BME280;29868;47.360;18.984;2023-02-13T08:43:33;102500.06;;;2.58;100.00
43818;BME280;29868;47.360;18.984;2023-02-13T08:45:59;102499.56;;;2.32;100.00
43818;BME280;29868;47.360;18.984;2023-02-13T08:48:26;102500.44;;;2.63;100.00
43818;BME280;29868;47.360;18.984;2023-02-13T08:50:51;102494.50;;;2.64;100.00
43818;BME280;29868;47.360;18.984;2023-02-13T08:53:16;102497.81;;;2.83;100.00
43818;BME280;29868;47.360;18.984;2023-02-13T08:55:42;102491.25;;;2.87;100.00
43818;BME280;29868;47.360;18.984;2023-02-13T08:58:07;102495.03;;;3.02;100.00
43818;BME280;29868;47.360;18.984;2023-02-13T09:00:33;102493.00;;;2.98;100.00
43818;BME280;29868;47.360;18.984;2023-02-13T09:03:02;102505.00;;;3.20;100.00
43818;BME280;29868;47.360;18.984;2023-02-13T09:05:29;102505.13;;;3.21;100.00
43818;BME280;29868;47.360;18.984;2023-02-13T09:07:59;102501.19;;;3.14;100.00
43818;BME280;29868;47.360;18.984;2023-02-13T09:10:25;102501.19;;;3.36;100.00
43818;BME280;29868;47.360;18.984;2023-02-13T09:12:51;102499.41;;;3.57;100.00
43818;BME280;29868;47.360;18.984;2023-02-13T09:15:17;102503.47;;;3.44;100.00
43818;BME280;29868;47.360;18.984;2023-02-13T09:17:42;102506.72;;;3.41;100.00
43818;BME280;29868;47.360;18.984;2023-02-13T09:20:08;102505.59;;;3.71;100.00
43818;BME280;29868;47.360;18.984;2023-02-13T09:22:34;102507.72;;;3.65;100.00
43818;BME280;29868;47.360;18.984;2023-02-13T09:24:59;102507.47;;;3.84;100.00
43818;BME280;29868;47.360;18.984;2023-02-13T09:27:28;102514.06;;;3.80;100.00
43818;BME280;29868;47.360;18.984;2023-02-13T09:29:54;102509.44;;;3.98;100.00
43818;BME280;29868;47.360;18.984;2023-02-13T09:32:19;102510.28;;;4.21;100.00
43818;BME280;29868;47.360;18.984;2023-02-13T09:34:45;102506.63;;;4.29;100.00
43818;BME280;29868;47.360;18.984;2023-02-13T09:37:10;102517.28;;;4.45;100.00
43818;BME280;29868;47.360;18.984;2023-02-13T09:39:36;102507.31;;;4.61;100.00
43818;BME280;29868;47.360;18.984;2023-02-13T09:42:04;102507.66;;;4.54;100.00
43818;BME280;29868;47.360;18.984;2023-02-13T09:44:39;102498.84;;;4.74;100.00
43818;BME280;29868;47.360;18.984;2023-02-13T09:47:20;102500.63;;;4.99;100.00
43818;BME280;29868;47.360;18.984;2023-02-13T09:50:41;102501.28;;;4.96;100.00
43818;BME280;29868;47.360;18.984;2023-02-13T09:52:43;102504.41;;;5.16;100.00
43818;BME280;29868;47.360;18.984;2023-02-13T09:55:25;102496.25;;;5.09;100.00
43818;BME280;29868;47.360;18.984;2023-02-13T09:58:14;102501.63;;;5.12;100.00
43818;BME280;29868;47.360;18.984;2023-02-13T10:00:50;102488.41;;;5.08;100.00
43818;BME280;29868;47.360;18.984;2023-02-13T10:03:30;102492.28;;;5.26;100.00
43818;BME280;29868;47.360;18.984;2023-02-13T10:08:47;102494.72;;;5.36;100.00
43818;BME280;29868;47.360;18.984;2023-02-13T10:14:30;102484.16;;;5.45;100.00
43818;BME280;29868;47.360;18.984;2023-02-13T10:17:05;102475.41;;;5.55;100.00
43818;BME280;29868;47.360;18.984;2023-02-13T10:19:36;102470.47;;;5.58;100.00
43818;BME280;29868;47.360;18.984;2023-02-13T10:22:18;102475.84;;;5.86;100.00
43818;BME280;29868;47.360;18.984;2023-02-13T10:27:24;102470.88;;;6.01;100.00
43818;BME280;29868;47.360;18.984;2023-02-13T10:30:05;102472.00;;;6.18;100.00
43818;BME280;29868;47.360;18.984;2023-02-13T10:35:33;102456.19;;;6.00;100.00
43818;BME280;29868;47.360;18.984;2023-02-13T10:40:38;102466.84;;;6.18;100.00
43818;BME280;29868;47.360;18.984;2023-02-13T10:43:08;102466.66;;;6.15;100.00
43818;BME280;29868;47.360;18.984;2023-02-13T10:48:57;102455.56;;;6.29;100.00
43818;BME280;29868;47.360;18.984;2023-02-13T10:51:39;102453.78;;;6.41;100.00
43818;BME280;29868;47.360;18.984;2023-02-13T10:54:41;102452.41;;;6.60;100.00
43818;BME280;29868;47.360;18.984;2023-02-13T11:02:40;102435.97;;;6.99;100.00
43818;BME280;29868;47.360;18.984;2023-02-13T11:05:35;102434.28;;;6.99;100.00
43818;BME280;29868;47.360;18.984;2023-02-13T11:08:01;102430.41;;;6.93;100.00
43818;BME280;29868;47.360;18.984;2023-02-13T11:10:27;102418.94;;;7.16;100.00
43818;BME280;29868;47.360;18.984;2023-02-13T11:12:55;102413.56;;;7.26;100.00
43818;BME280;29868;47.360;18.984;2023-02-13T11:17:46;102403.41;;;7.29;100.00
43818;BME280;29868;47.360;18.984;2023-02-13T11:20:32;102409.31;;;7.41;100.00
43818;BME280;29868;47.360;18.984;2023-02-13T11:23:16;102407.94;;;7.46;100.00
43818;BME280;29868;47.360;18.984;2023-02-13T11:25:54;102399.72;;;7.53;100.00
43818;BME280;29868;47.360;18.984;2023-02-13T11:28:21;102403.38;;;7.57;100.00
43818;BME280;29868;47.360;18.984;2023-02-13T11:30:46;102394.19;;;7.47;100.00
43818;BME280;29868;47.360;18.984;2023-02-13T11:35:41;102396.41;;;7.84;100.00
43818;BME280;29868;47.360;18.984;2023-02-13T11:40:49;102390.94;;;7.94;100.00
43818;BME280;29868;47.360;18.984;2023-02-13T11:46:13;102381.41;;;8.23;100.00
43818;BME280;29868;47.360;18.984;2023-02-13T11:48:42;102372.22;;;8.13;100.00
43818;BME280;29868;47.360;18.984;2023-02-13T11:51:08;102369.28;;;8.07;100.00
43818;BME280;29868;47.360;18.984;2023-02-13T11:53:38;102364.63;;;8.16;100.00
43818;BME280;29868;47.360;18.984;2023-02-13T11:56:10;102363.75;;;8.16;100.00
43818;BME280;29868;47.360;18.984;2023-02-13T11:58:36;102362.47;;;8.09;100.00
43818;BME280;29868;47.360;18.984;2023-02-13T12:01:09;102360.00;;;8.11;100.00
43818;BME280;29868;47.360;18.984;2023-02-13T12:03:35;102361.59;;;8.23;100.00
43818;BME280;29868;47.360;18.984;2023-02-13T12:06:12;102354.66;;;8.37;100.00
43818;BME280;29868;47.360;18.984;2023-02-13T12:08:39;102347.25;;;8.60;100.00
43818;BME280;29868;47.360;18.984;2023-02-13T12:13:58;102340.91;;;8.55;100.00
43818;BME280;29868;47.360;18.984;2023-02-13T12:16:42;102348.41;;;8.65;100.00
43818;BME280;29868;47.360;18.984;2023-02-13T12:19:18;102349.66;;;8.71;100.00
43818;BME280;29868;47.360;18.984;2023-02-13T12:21:59;102341.59;;;8.67;100.00
43818;BME280;29868;47.360;18.984;2023-02-13T12:27:20;102331.81;;;8.94;100.00
43818;BME280;29868;47.360;18.984;2023-02-13T12:38:03;102312.31;;;8.84;100.00
43818;BME280;29868;47.360;18.984;2023-02-13T12:40:49;102306.91;;;8.96;100.00
43818;BME280;29868;47.360;18.984;2023-02-13T12:51:29;102295.00;;;8.83;100.00
43818;BME280;29868;47.360;18.984;2023-02-13T13:07:41;102288.34;;;9.05;100.00
43818;BME280;29868;47.360;18.984;2023-02-13T13:23:56;102274.31;;;9.01;100.00
43818;BME280;29868;47.360;18.984;2023-02-13T13:26:44;102271.50;;;8.96;100.00
43818;BME280;29868;47.360;18.984;2023-02-13T13:29:23;102271.00;;;8.71;100.00
43818;BME280;29868;47.360;18.984;2023-02-13T13:31:59;102272.94;;;8.59;100.00
43818;BME280;29868;47.360;18.984;2023-02-13T13:34:26;102273.28;;;8.65;100.00
43818;BME280;29868;47.360;18.984;2023-02-13T13:42:23;102273.19;;;8.63;100.00
43818;BME280;29868;47.360;18.984;2023-02-13T13:45:12;102267.16;;;8.79;100.00
43818;BME280;29868;47.360;18.984;2023-02-13T13:50:24;102267.22;;;8.64;100.00
43818;BME280;29868;47.360;18.984;2023-02-13T13:53:11;102260.81;;;8.74;100.00
43818;BME280;29868;47.360;18.984;2023-02-13T13:58:35;102250.28;;;8.87;100.00
43818;BME280;29868;47.360;18.984;2023-02-13T14:03:59;102263.50;;;8.92;100.00
43818;BME280;29868;47.360;18.984;2023-02-13T14:09:41;102262.91;;;8.97;100.00
43818;BME280;29868;47.360;18.984;2023-02-13T14:12:46;102262.50;;;8.90;100.00
43818;BME280;29868;47.360;18.984;2023-02-13T14:17:57;102254.66;;;8.72;100.00
43818;BME280;29868;47.360;18.984;2023-02-13T14:23:32;102260.81;;;8.74;100.00
43818;BME280;29868;47.360;18.984;2023-02-13T14:28:41;102256.53;;;8.91;100.00
43818;BME280;29868;47.360;18.984;2023-02-13T14:36:36;102271.41;;;8.31;100.00
43818;BME280;29868;47.360;18.984;2023-02-13T14:41:57;102278.72;;;7.92;100.00
43818;BME280;29868;47.360;18.984;2023-02-13T14:44:33;102284.34;;;7.70;100.00
43818;BME280;29868;47.360;18.984;2023-02-13T14:47:02;102286.38;;;7.61;100.00
43818;BME280;29868;47.360;18.984;2023-02-13T14:49:31;102282.56;;;7.54;100.00
43818;BME280;29868;47.360;18.984;2023-02-13T14:52:01;102275.94;;;7.45;100.00
43818;BME280;29868;47.360;18.984;2023-02-13T14:54:37;102276.75;;;7.29;100.00
43818;BME280;29868;47.360;18.984;2023-02-13T14:57:16;102277.38;;;7.25;100.00
43818;BME280;29868;47.360;18.984;2023-02-13T14:59:52;102288.13;;;7.18;100.00
43818;BME280;29868;47.360;18.984;2023-02-13T15:02:25;102278.03;;;7.07;100.00
43818;BME280;29868;47.360;18.984;2023-02-13T15:05:11;102283.47;;;6.97;100.00
43818;BME280;29868;47.360;18.984;2023-02-13T15:07:45;102276.03;;;6.89;100.00
43818;BME280;29868;47.360;18.984;2023-02-13T15:12:57;102267.25;;;6.72;100.00
43818;BME280;29868;47.360;18.984;2023-02-13T15:17:49;102261.13;;;6.56;100.00
43818;BME280;29868;47.360;18.984;2023-02-13T15:20:23;102262.72;;;6.54;100.00
43818;BME280;29868;47.360;18.984;2023-02-13T15:22:50;102262.34;;;6.48;100.00
43818;BME280;29868;47.360;18.984;2023-02-13T15:25:28;102272.47;;;6.45;100.00
43818;BME280;29868;47.360;18.984;2023-02-13T15:27:55;102266.22;;;6.42;100.00
43818;BME280;29868;47.360;18.984;2023-02-13T15:30:28;102266.56;;;6.33;100.00
43818;BME280;29868;47.360;18.984;2023-02-13T15:37:51;102269.53;;;6.26;100.00